Terminal Aerodrome Forecast
Issued by NWS Duluth, MN

Home | Current Version | Previous Version | Text Only | Print | Product List | Glossary On
Versions: 1 2 3 4 5 6 7 8 9 10 11 12 13 14 15 16 17 18 19
000
FTUS43 KDLH 011728
TAFDLH
TAF
KDLH 011728Z 0118/0218 29012G20KT P6SM SCT060
     FM020100 26008KT P6SM SCT100
     FM020800 25004KT P6SM VCSH SCT080 BKN120
     FM021500 33008KT P6SM VCSH FEW025 BKN080=

USA.gov is the U.S. government's official web portal to all federal, state and local government web resources and services.